Time;durP1;ratioP1;P1;durP2;ratioP2;P2;SDS_P1;SDS_P2;PMS_P1;PMS_P2;Temp;Humidity;BMP_temperature;BMP_pressure;BME280_temperature;BME280_humidity;BME280_pressure;Samples;Min_cycle;Max_cycle;Signal;HPM_P1;HPM_P2
2021/09/19 00:01:14;;;;;;;;;9.00;8.00;;;;;20.36;62.84;100835.13;6238297;22;45698;-92
2021/09/19 00:03:41;;;;;;;;;7.00;7.00;;;;;20.34;63.01;100834.28;6240091;22;45303;-91
2021/09/19 00:06:07;;;;;;;;;5.33;5.33;;;;;20.35;63.15;100833.38;6242240;22;44731;-93
2021/09/19 00:08:35;;;;;;;;;6.00;6.00;;;;;20.43;63.00;100844.75;6269364;22;47086;-94
2021/09/19 00:11:03;;;;;;;;;6.00;5.67;;;;;20.46;62.93;100846.47;6269195;22;44756;-91
2021/09/19 00:13:29;;;;;;;;;10.00;7.00;;;;;20.41;62.62;100838.56;6244764;22;45323;-92
2021/09/19 00:15:55;;;;;;;;;10.67;7.00;;;;;20.45;63.24;100834.91;6294656;22;45236;-93
2021/09/19 00:18:21;;;;;;;;;7.00;6.00;;;;;20.51;63.15;100838.38;6244715;22;46742;-93
2021/09/19 00:20:48;;;;;;;;;8.00;7.00;;;;;20.48;62.87;100840.19;6270824;22;45837;-94
2021/09/19 00:23:15;;;;;;;;;5.67;5.67;;;;;20.32;62.52;100822.78;6273868;22;44745;-93
2021/09/19 00:25:40;;;;;;;;;8.00;7.00;;;;;20.30;63.09;100819.25;6301939;22;44817;-91
2021/09/19 00:28:06;;;;;;;;;6.67;6.00;;;;;20.29;63.09;100814.81;6278466;22;46768;-93
2021/09/19 00:30:43;;;;;;;;;8.00;5.33;;;;;20.32;62.97;100817.44;6302954;22;44685;-94
2021/09/19 00:33:10;;;;;;;;;8.67;8.67;;;;;;;;6252650;22;44795;-95
2021/09/19 00:35:36;;;;;;;;;9.00;8.00;;;;;20.33;63.10;100827.19;6253223;22;44774;-91
2021/09/19 00:38:02;;;;;;;;;10.33;8.33;;;;;20.29;62.68;100820.16;6304419;22;45386;-93
2021/09/19 00:40:28;;;;;;;;;11.00;9.00;;;;;20.29;62.96;100814.81;6278440;22;44664;-91
2021/09/19 00:42:54;;;;;;;;;10.33;8.00;;;;;20.30;63.36;100814.81;6279548;22;44633;-93
2021/09/19 00:45:24;;;;;;;;;8.33;8.00;;;;;20.32;63.22;100821.00;6279336;22;44839;-91
2021/09/19 00:47:51;;;;;;;;;6.00;6.00;;;;;20.29;62.88;100812.16;6279445;22;45780;-93
2021/09/19 00:50:24;;;;;;;;;5.33;5.00;;;;;20.19;63.10;100803.47;6279298;22;45145;-91
2021/09/19 00:52:51;;;;;;;;;8.00;7.67;;;;;20.19;63.11;100801.69;6278681;22;44736;-95
2021/09/19 00:55:20;;;;;;;;;7.00;6.00;;;;;20.26;62.92;100821.13;6300336;22;44541;-94
2021/09/19 00:57:49;;;;;;;;;7.00;6.00;;;;;20.22;63.44;100816.75;6270052;22;45589;-93
2021/09/19 01:00:27;;;;;;;;;6.00;6.00;;;;;20.17;63.64;100805.28;6261877;22;45387;-94
2021/09/19 01:03:15;;;;;;;;;7.67;7.00;;;;;20.25;63.53;100820.25;6262734;22;45118;-93
2021/09/19 01:05:44;;;;;;;;;7.00;5.67;;;;;20.15;63.63;100808.00;6262604;22;45385;-94
2021/09/19 01:08:14;;;;;;;;;6.67;6.67;;;;;20.23;63.72;100814.06;6292162;22;45510;-92
2021/09/19 01:10:40;;;;;;;;;8.00;7.33;;;;;20.14;63.62;100792.88;6278155;22;45237;-90
2021/09/19 01:13:07;;;;;;;;;6.67;6.00;;;;;20.24;64.11;100807.78;6279154;22;44772;-91
2021/09/19 01:15:33;;;;;;;;;6.33;6.33;;;;;20.21;64.41;100812.31;6278895;22;44899;-93
2021/09/19 01:17:59;;;;;;;;;9.67;7.67;;;;;20.19;63.79;100804.34;6278645;22;47276;-91
2021/09/19 01:20:28;;;;;;;;;6.67;6.67;;;;;20.10;64.06;100799.19;6305815;22;44771;-93
2021/09/19 01:23:11;;;;;;;;;7.33;7.33;;;;;20.09;63.85;100800.13;6279516;22;44757;-94
2021/09/19 01:25:38;;;;;;;;;8.67;8.00;;;;;20.12;64.27;100798.28;6278521;22;45886;-90
2021/09/19 01:28:05;;;;;;;;;8.00;7.33;;;;;20.12;64.35;100797.38;6303649;22;45616;-90
2021/09/19 01:30:31;;;;;;;;;8.67;8.00;;;;;20.04;64.58;100778.84;6277349;22;44757;-88
2021/09/19 01:32:57;;;;;;;;;8.33;8.33;;;;;20.04;64.68;100786.84;6247797;22;44719;-89
2021/09/19 01:35:24;;;;;;;;;11.33;9.33;;;;;20.01;64.47;100782.44;6272629;22;45624;-90
2021/09/19 01:37:51;;;;;;;;;10.33;7.67;;;;;19.98;64.30;100782.53;6297058;22;47158;-91
2021/09/19 01:40:17;;;;;;;;;9.67;8.00;;;;;20.10;64.45;100807.22;6295168;22;45289;-91
2021/09/19 01:42:44;;;;;;;;;8.67;8.67;;;;;19.98;64.65;100787.88;6268356;22;45195;-90
2021/09/19 01:45:13;;;;;;;;;6.67;6.67;;;;;20.02;64.64;100794.00;6268858;22;45169;-91
2021/09/19 01:47:59;;;;;;;;;6.00;6.00;;;;;19.93;64.68;100776.41;6264021;22;47151;-90
2021/09/19 01:50:26;;;;;;;;;9.00;8.00;;;;;19.92;64.90;100782.66;6190749;23;44751;-90
2021/09/19 01:52:54;;;;;;;;;10.33;8.33;;;;;19.96;65.15;100796.81;6162755;23;45341;-91
2021/09/19 01:55:20;;;;;;;;;6.33;6.33;;;;;19.90;65.03;100790.66;6161600;23;45312;-93
2021/09/19 01:57:46;;;;;;;;;9.67;8.67;;;;;19.90;65.10;100785.34;6162818;23;48103;-91
2021/09/19 02:00:13;;;;;;;;;10.00;9.00;;;;;19.96;64.84;100797.69;6164971;23;45731;-90
2021/09/19 02:02:38;;;;;;;;;8.33;7.33;;;;;20.00;64.88;100812.72;6194354;23;45403;-90
2021/09/19 02:05:08;;;;;;;;;8.00;8.00;;;;;19.92;64.92;100792.44;6197660;23;45427;-91
2021/09/19 02:07:37;;;;;;;;;10.33;10.33;;;;;19.81;65.05;100784.66;6185400;23;47358;-91
2021/09/19 02:10:06;;;;;;;;;11.67;9.33;;;;;19.85;64.97;100794.34;6185705;23;44674;-92
2021/09/19 02:12:32;;;;;;;;;8.33;8.33;;;;;19.86;65.13;100788.13;6184096;23;45262;-93
2021/09/19 02:14:59;;;;;;;;;8.67;7.67;;;;;19.89;65.58;100788.03;6184330;23;45228;-91
2021/09/19 02:17:30;;;;;;;;;12.67;12.67;;;;;19.75;65.49;100773.22;6185947;22;47386;-90
2021/09/19 02:19:55;;;;;;;;;11.67;11.00;;;;;19.79;65.97;100782.03;6186431;22;44749;-91
2021/09/19 02:22:21;;;;;;;;;11.33;10.00;;;;;19.80;65.82;100783.78;6210139;22;44646;-92
2021/09/19 02:24:48;;;;;;;;;9.00;9.00;;;;;19.87;66.04;100785.41;6206625;22;45137;-90
2021/09/19 02:27:14;;;;;;;;;12.00;9.33;;;;;19.87;65.60;100785.41;6204673;22;47462;-91
2021/09/19 02:29:41;;;;;;;;;6.00;3.67;;;;;19.81;66.06;100774.00;6276296;22;45400;-91
2021/09/19 02:32:10;;;;;;;;;11.67;10.33;;;;;19.73;65.74;100764.38;6305142;22;44731;-90
2021/09/19 02:34:37;;;;;;;;;9.00;9.00;;;;;19.69;65.98;100764.47;6306196;22;44759;-90
2021/09/19 02:37:04;;;;;;;;;11.33;9.00;;;;;19.69;66.20;100760.00;6277546;22;47267;-92
2021/09/19 02:39:29;;;;;;;;;10.00;9.00;;;;;19.72;66.16;100765.28;6251375;22;44719;-92
2021/09/19 02:41:55;;;;;;;;;9.00;9.00;;;;;19.66;66.16;100758.28;6277041;22;44731;-92
2021/09/19 02:44:20;;;;;;;;;13.33;12.67;;;;;19.70;66.24;100777.75;6305841;22;44753;-92
2021/09/19 02:46:46;;;;;;;;;16.00;13.00;;;;;19.63;66.35;100755.66;6271370;22;47092;-89
2021/09/19 02:49:12;;;;;;;;;13.00;11.00;;;;;19.75;66.44;100773.22;6266373;22;44796;-91
2021/09/19 02:51:39;;;;;;;;;13.33;10.00;;;;;19.77;66.28;100773.19;6266065;22;45355;-92
2021/09/19 02:54:04;;;;;;;;;10.33;10.33;;;;;19.61;66.42;100746.81;6267848;22;45537;-92
2021/09/19 02:56:38;;;;;;;;;13.33;12.33;;;;;19.59;66.14;100742.41;6296099;22;45161;-93
2021/09/19 02:59:05;;;;;;;;;11.00;10.33;;;;;19.69;66.33;100760.00;6238872;22;45303;-90
2021/09/19 03:01:33;;;;;;;;;11.67;10.33;;;;;19.66;66.06;100749.41;6232727;22;45277;-92
2021/09/19 03:03:58;;;;;;;;;13.33;12.33;;;;;19.60;66.40;100736.19;6254391;22;45251;-90
2021/09/19 03:06:25;;;;;;;;;13.00;10.33;;;;;19.64;66.60;100748.53;6254056;22;46958;-90
2021/09/19 03:08:51;;;;;;;;;13.67;11.67;;;;;19.68;66.59;100766.25;6254121;22;45425;-89
2021/09/19 03:11:17;;;;;;;;;14.67;12.00;;;;;19.58;66.53;100738.91;6252119;22;45378;-92
2021/09/19 03:13:45;;;;;;;;;12.00;11.67;;;;;19.53;66.35;100730.09;6252183;22;45383;-90
2021/09/19 03:16:10;;;;;;;;;12.00;11.67;;;;;19.67;66.58;100754.69;6251583;22;46741;-91
2021/09/19 03:18:37;;;;;;;;;12.00;10.67;;;;;19.63;66.38;100746.81;6226780;22;45179;-90
2021/09/19 03:21:03;;;;;;;;;10.33;10.33;;;;;19.62;66.54;100748.59;6227958;22;45190;-91
2021/09/19 03:23:28;;;;;;;;;10.67;10.67;;;;;19.59;66.38;100742.41;6253209;22;45409;-90
2021/09/19 03:25:54;;;;;;;;;14.67;12.33;;;;;19.48;66.39;100729.31;6252361;22;47392;-92
2021/09/19 03:28:21;;;;;;;;;15.33;12.33;;;;;19.54;66.50;100742.53;6252813;22;45340;-92
2021/09/19 03:30:46;;;;;;;;;10.00;10.00;;;;;19.56;66.83;100748.72;6258543;22;45497;-89
2021/09/19 03:33:12;;;;;;;;;12.33;11.67;;;;;19.59;66.65;100758.41;6256957;22;45360;-90
2021/09/19 03:35:37;;;;;;;;;14.67;12.00;;;;;19.53;66.65;100738.97;6254872;22;46860;-90
2021/09/19 03:38:03;;;;;;;;;14.33;12.33;;;;;19.47;66.38;100731.09;6282925;22;45243;-91
2021/09/19 03:40:29;;;;;;;;;12.67;12.00;;;;;19.46;66.57;100731.16;6252924;22;45406;-90
2021/09/19 03:42:55;;;;;;;;;14.33;12.33;;;;;19.52;66.56;100742.53;6252655;22;45450;-91
2021/09/19 03:45:24;;;;;;;;;13.33;12.67;;;;;19.49;66.79;100736.41;6257513;22;47995;-90
2021/09/19 03:47:50;;;;;;;;;18.67;12.00;;;;;19.56;66.68;100744.22;6242790;22;44830;-89
2021/09/19 03:50:15;;;;;;;;;15.33;13.33;;;;;19.49;66.76;100745.28;6267865;22;45438;-91
2021/09/19 03:52:41;;;;;;;;;9.33;9.00;;;;;19.41;66.73;100739.22;6268713;22;45355;-90
2021/09/19 03:55:07;;;;;;;;;14.00;13.00;;;;;19.50;66.74;100755.03;6262073;22;47921;-92
2021/09/19 03:57:32;;;;;;;;;15.33;14.00;;;;;19.46;66.81;100749.81;6254997;22;45829;-91
2021/09/19 03:59:59;;;;;;;;;15.00;13.67;;;;;19.32;66.86;100732.28;6270122;22;45378;-90
2021/09/19 04:02:32;;;;;;;;;17.00;11.33;;;;;19.40;66.77;100754.34;6266182;22;45409;-91
2021/09/19 04:04:58;;;;;;;;;10.33;10.00;;;;;19.43;66.74;100758.72;6255762;22;47163;-93
2021/09/19 04:07:23;;;;;;;;;12.67;12.67;;;;;19.26;66.99;100735.94;6230728;22;45512;-91
2021/09/19 04:09:49;;;;;;;;;13.33;12.67;;;;;19.36;66.93;100751.75;6255939;22;45352;-92
2021/09/19 04:12:14;;;;;;;;;14.00;13.00;;;;;19.32;66.64;100749.16;6283877;22;45338;-90
2021/09/19 04:14:40;;;;;;;;;15.67;15.67;;;;;19.34;66.61;100759.78;6256383;22;47233;-90
2021/09/19 04:17:05;;;;;;;;;16.67;14.33;;;;;19.30;66.75;100758.97;6229242;22;45206;-93
2021/09/19 04:19:31;;;;;;;;;16.00;15.00;;;;;19.16;66.86;100729.88;6255677;22;45264;-91
2021/09/19 04:21:58;;;;;;;;;16.67;15.00;;;;;19.19;66.88;100735.19;6258284;22;45359;-91
2021/09/19 04:24:23;;;;;;;;;16.33;15.00;;;;;19.10;66.87;100736.19;6287987;22;45278;-90
2021/09/19 04:26:49;;;;;;;;;14.33;12.00;;;;;19.13;66.88;100743.25;6262174;22;45280;-94
2021/09/19 04:29:14;;;;;;;;;17.67;13.33;;;;;19.12;66.48;100753.94;6258872;22;45373;-94
2021/09/19 04:31:40;;;;;;;;;11.00;8.67;;;;;19.05;66.72;100738.06;6288884;22;45122;-92
2021/09/19 04:34:05;;;;;;;;;20.00;15.67;;;;;19.05;66.63;100746.06;6262890;22;45374;-91
2021/09/19 04:36:31;;;;;;;;;16.33;15.33;;;;;19.05;65.88;100743.41;6262515;22;45688;-90
2021/09/19 04:38:57;;;;;;;;;14.33;14.33;;;;;18.96;66.51;100749.75;6293298;22;45251;-90
2021/09/19 04:41:22;;;;;;;;;15.67;13.33;;;;;19.09;66.23;100776.19;6239493;22;45333;-92
2021/09/19 04:43:48;;;;;;;;;17.00;13.00;;;;;19.08;66.32;100777.97;6272342;22;47263;-91
2021/09/19 04:46:13;;;;;;;;;15.00;14.67;;;;;19.07;66.41;100773.56;6302772;22;44708;-90
2021/09/19 04:48:39;;;;;;;;;13.33;11.33;;;;;19.06;66.72;100771.78;6274847;22;44738;-90
2021/09/19 04:51:04;;;;;;;;;15.33;12.33;;;;;19.00;66.43;100761.25;6302438;22;44736;-91
2021/09/19 04:53:30;;;;;;;;;14.00;12.00;;;;;19.04;66.90;100778.94;6276673;22;47096;-90
2021/09/19 04:55:55;;;;;;;;;15.00;14.00;;;;;18.97;65.54;100775.47;6303914;22;45276;-89
2021/09/19 04:58:21;;;;;;;;;14.00;13.00;;;;;18.99;65.29;100780.81;6277964;22;45421;-88
2021/09/19 05:00:49;;;;;;;;;14.33;13.33;;;;;18.85;65.20;100765.91;6276672;22;45177;-89
2021/09/19 05:03:15;;;;;;;;;14.00;13.33;;;;;18.97;64.99;100783.47;6276190;22;46941;-89
2021/09/19 05:05:41;;;;;;;;;12.33;12.33;;;;;18.86;65.20;100775.69;6302691;22;44665;-88
2021/09/19 05:08:07;;;;;;;;;15.67;13.67;;;;;18.86;64.80;100775.69;6275746;22;44720;-89
2021/09/19 05:10:33;;;;;;;;;14.67;13.33;;;;;18.81;64.18;100766.88;6273801;22;44814;-89
2021/09/19 05:12:58;;;;;;;;;14.00;13.00;;;;;18.78;64.29;100768.72;6272021;22;47219;-90
2021/09/19 05:15:24;;;;;;;;;14.33;12.00;;;;;18.75;63.89;100772.31;6273563;22;44719;-89
2021/09/19 05:17:49;;;;;;;;;14.00;13.67;;;;;18.80;63.26;100780.22;6273831;22;44789;-91
2021/09/19 05:20:15;;;;;;;;;13.67;13.33;;;;;18.66;63.85;100764.44;6298143;22;45342;-89
2021/09/19 05:22:41;;;;;;;;;14.33;12.67;;;;;18.66;63.56;100767.13;6266874;22;47646;-91
2021/09/19 05:25:08;;;;;;;;;15.00;14.00;;;;;18.70;63.45;100784.81;6284221;22;45295;-92
2021/09/19 05:27:34;;;;;;;;;13.00;10.00;;;;;18.63;62.86;100781.38;6259360;22;45395;-90
2021/09/19 05:30:01;;;;;;;;;12.33;12.00;;;;;18.63;62.98;100789.38;6244622;22;45278;-90
2021/09/19 05:32:26;;;;;;;;;17.33;12.67;;;;;18.63;62.98;100786.69;6269074;22;47196;-90
2021/09/19 05:34:52;;;;;;;;;14.67;12.67;;;;;18.47;62.77;100759.41;6269619;22;45281;-90
2021/09/19 05:37:17;;;;;;;;;14.67;14.67;;;;;18.48;63.03;100770.06;6264433;22;45374;-90
2021/09/19 05:39:43;;;;;;;;;13.33;11.33;;;;;18.55;62.62;100792.13;6260161;22;45510;-92
2021/09/19 05:42:09;;;;;;;;;15.33;13.33;;;;;18.57;63.00;100795.63;6283411;22;46431;-89
2021/09/19 05:44:37;;;;;;;;;12.00;12.00;;;;;18.57;62.83;100792.97;6282437;22;45227;-91
2021/09/19 05:47:03;;;;;;;;;14.33;14.33;;;;;18.49;62.77;100778.91;6261831;22;45298;-91
2021/09/19 05:49:30;;;;;;;;;15.33;12.67;;;;;18.54;62.41;100800.13;6278848;22;44730;-90
2021/09/19 05:51:56;;;;;;;;;13.67;13.67;;;;;18.43;62.44;100785.22;6278833;22;45584;-90
2021/09/19 05:54:21;;;;;;;;;12.33;12.00;;;;;18.42;62.64;100777.25;6278320;22;45357;-90
2021/09/19 05:56:47;;;;;;;;;13.33;13.33;;;;;18.49;62.04;100797.53;6278978;22;44729;-90
2021/09/19 05:59:12;;;;;;;;;13.33;12.33;;;;;18.44;62.02;100794.06;6278654;22;44916;-91
2021/09/19 06:01:38;;;;;;;;;13.00;11.00;;;;;18.45;62.16;100801.16;6278618;22;46797;-90
2021/09/19 06:04:03;;;;;;;;;10.33;9.33;;;;;18.47;62.09;100810.88;6278839;22;45166;-91
2021/09/19 06:06:29;;;;;;;;;9.67;9.33;;;;;18.44;62.35;100805.63;6278889;22;44693;-90
2021/09/19 06:08:54;;;;;;;;;13.33;9.33;;;;;18.50;62.45;100817.94;6279442;22;44734;-90
2021/09/19 06:11:20;;;;;;;;;13.67;12.33;;;;;18.41;61.73;100808.31;6278518;22;47366;-90
2021/09/19 06:13:45;;;;;;;;;14.00;13.33;;;;;18.42;62.13;100807.41;6291657;22;45054;-93
2021/09/19 06:16:11;;;;;;;;;13.33;12.00;;;;;18.49;61.83;100821.50;6282969;22;45687;-93
2021/09/19 06:18:37;;;;;;;;;15.33;14.33;;;;;18.38;61.63;100806.56;6256268;22;45550;-90
2021/09/19 06:21:03;;;;;;;;;13.33;12.33;;;;;18.42;62.07;100801.22;6255863;22;46377;-90
2021/09/19 06:23:36;;;;;;;;;11.67;11.67;;;;;18.45;62.19;100810.03;6256816;22;45300;-90
2021/09/19 06:26:03;;;;;;;;;13.00;13.00;;;;;18.55;62.07;100817.88;6287093;22;45123;-93
2021/09/19 06:28:30;;;;;;;;;13.00;12.33;;;;;18.52;62.08;100813.47;6235601;22;45204;-90
2021/09/19 06:30:56;;;;;;;;;14.33;11.67;;;;;18.49;61.53;100817.06;6285419;22;45475;-91
2021/09/19 06:33:22;;;;;;;;;16.33;15.33;;;;;18.48;61.98;100806.44;6286687;22;45271;-91
2021/09/19 06:35:47;;;;;;;;;16.67;14.00;;;;;18.57;61.90;100822.25;6285795;22;44739;-92
2021/09/19 06:38:13;;;;;;;;;14.33;12.33;;;;;18.48;61.90;100806.44;6255099;22;45363;-90
2021/09/19 06:40:39;;;;;;;;;14.00;14.00;;;;;18.52;61.35;100814.38;6259300;22;47697;-91
2021/09/19 06:43:04;;;;;;;;;11.67;11.67;;;;;18.50;61.76;100805.53;6261587;22;45260;-90
2021/09/19 06:45:30;;;;;;;;;15.00;14.67;;;;;18.50;62.14;100800.19;6239866;22;45333;-90
2021/09/19 06:48:04;;;;;;;;;14.33;12.33;;;;;18.56;61.56;100819.63;6270763;22;45188;-90
2021/09/19 06:50:30;;;;;;;;;15.67;13.67;;;;;18.56;61.84;100811.66;6288366;22;45218;-89
2021/09/19 06:52:56;;;;;;;;;14.33;12.67;;;;;18.59;61.97;100820.47;6293788;22;45178;-90
2021/09/19 06:55:23;;;;;;;;;10.67;9.67;;;;;18.71;62.00;100837.16;6269890;22;44607;-90
2021/09/19 06:57:57;;;;;;;;;12.33;12.00;;;;;18.69;61.88;100815.91;6266939;22;44824;-91
2021/09/19 07:02:52;;;;;;;;;13.33;13.33;;;;;18.91;60.90;100830.66;6305224;22;45344;-83
2021/09/19 07:05:18;;;;;;;;;14.67;13.33;;;;;18.99;60.43;100836.75;6305425;22;45339;-77
2021/09/19 07:07:43;;;;;;;;;14.00;12.33;;;;;19.06;61.30;100843.72;6278229;22;45444;-81
2021/09/19 07:10:09;;;;;;;;;16.33;14.67;;;;;19.12;60.51;100840.06;6305441;22;46208;-80
2021/09/19 07:12:35;;;;;;;;;14.33;13.33;;;;;19.15;60.16;100844.50;6305458;22;45160;-81
2021/09/19 07:15:00;;;;;;;;;18.00;15.00;;;;;19.20;59.96;100853.31;6305634;22;45254;-79
2021/09/19 07:17:25;;;;;;;;;14.00;12.00;;;;;19.20;59.39;100848.88;6305860;22;45327;-78
2021/09/19 07:19:51;;;;;;;;;17.33;14.00;;;;;19.18;59.34;100858.69;6305114;22;46907;-79
2021/09/19 07:22:16;;;;;;;;;16.00;15.00;;;;;19.23;59.89;100863.91;6306115;22;45324;-79
2021/09/19 07:24:41;;;;;;;;;17.67;15.00;;;;;19.25;59.62;100862.09;6306088;22;45196;-79
2021/09/19 07:27:07;;;;;;;;;13.33;13.33;;;;;19.30;59.51;100864.69;6306335;22;45317;-79
2021/09/19 07:29:33;;;;;;;;;18.00;15.33;;;;;19.31;59.40;100867.31;6305662;22;45349;-80
2021/09/19 07:32:01;;;;;;;;;13.67;13.33;;;;;19.31;59.62;100872.66;6304840;22;45372;-78
2021/09/19 07:34:29;;;;;;;;;15.33;15.33;;;;;19.29;58.97;100877.13;6306051;22;45397;-80
2021/09/19 07:36:55;;;;;;;;;16.00;16.00;;;;;19.29;59.62;100881.59;6305637;22;45190;-79
2021/09/19 07:39:20;;;;;;;;;18.67;13.67;;;;;19.31;60.32;100877.97;6305619;22;45970;-78
2021/09/19 07:41:48;;;;;;;;;16.33;13.67;;;;;19.38;59.94;100877.88;6304949;22;45286;-79
2021/09/19 07:44:14;;;;;;;;;18.67;17.00;;;;;19.41;59.60;100886.72;6305456;22;45360;-79
2021/09/19 07:46:40;;;;;;;;;17.00;16.67;;;;;19.47;59.14;100890.16;6305060;22;45446;-78
2021/09/19 07:49:05;;;;;;;;;15.33;15.00;;;;;19.50;59.22;100893.66;6304799;22;46821;-80
2021/09/19 07:51:31;;;;;;;;;15.00;14.00;;;;;19.52;58.35;100891.84;6305673;22;45263;-79
2021/09/19 07:53:57;;;;;;;;;15.33;15.33;;;;;19.56;59.15;100895.34;6306108;22;45382;-78
2021/09/19 07:56:22;;;;;;;;;13.33;11.33;;;;;19.61;58.52;100898.81;6306004;22;45381;-81
2021/09/19 07:58:48;;;;;;;;;14.33;13.33;;;;;19.69;58.80;100903.13;6304791;22;46222;-78
2021/09/19 08:01:14;;;;;;;;;18.00;14.33;;;;;19.81;59.47;100902.03;6304711;22;45246;-80
2021/09/19 08:03:39;;;;;;;;;17.00;16.00;;;;;19.93;59.77;100912.47;6305400;22;45216;-83
2021/09/19 08:06:06;;;;;;;;;13.00;11.67;;;;;20.06;58.46;100913.09;6305578;22;45196;-79
2021/09/19 08:08:31;;;;;;;;;15.33;12.67;;;;;20.15;58.56;100913.88;6304780;22;46910;-83
2021/09/19 08:10:56;;;;;;;;;12.67;12.67;;;;;20.22;57.18;100915.50;6306194;22;45247;-78
2021/09/19 08:13:22;;;;;;;;;14.00;14.00;;;;;20.24;58.15;100917.22;6278468;22;45406;-79
2021/09/19 08:15:47;;;;;;;;;15.00;13.33;;;;;20.24;58.74;100916.38;6306912;22;45309;-81
2021/09/19 08:18:13;;;;;;;;;13.33;13.00;;;;;20.21;57.37;100914.63;6304936;22;46218;-79
2021/09/19 08:20:38;;;;;;;;;14.33;13.33;;;;;20.17;57.50;100912.03;6305076;22;45303;-79
2021/09/19 08:23:49;;;;;;;;;14.33;13.33;;;;;20.11;57.76;100915.72;6310237;22;45358;-91
2021/09/19 08:26:27;;;;;;;;;14.33;12.00;;;;;20.01;58.17;100905.19;6278604;22;45339;-92
2021/09/19 08:29:02;;;;;;;;;14.00;14.00;;;;;19.97;57.51;100911.50;6279509;22;47960;-91
2021/09/19 08:31:40;;;;;;;;;;;;;;;;;;;;;
2021/09/19 08:34:09;;;;;;;;;15.00;15.00;;;;;20.00;58.00;100921.22;6309477;22;68839;-91
2021/09/19 08:36:36;;;;;;;;;16.67;16.67;;;;;20.11;58.38;100934.41;6281571;22;45529;-92
2021/09/19 08:39:15;;;;;;;;;14.67;14.00;;;;;20.06;57.71;100917.56;6310574;22;46194;-90
2021/09/19 08:41:43;;;;;;;;;15.67;14.00;;;;;20.15;57.82;100916.53;6257185;22;45323;-91
2021/09/19 08:44:12;;;;;;;;;14.00;14.00;;;;;20.27;58.39;100920.75;6280130;22;45137;-91
2021/09/19 08:46:50;;;;;;;;;16.33;15.33;;;;;20.43;57.56;100932.84;6281813;22;45398;-92
2021/09/19 08:49:32;;;;;;;;;;;;;;;;;;;;;
2021/09/19 08:51:58;;;;;;;;;14.33;14.33;;;;;20.63;57.39;100944.91;6310658;22;72054;-91
2021/09/19 08:54:26;;;;;;;;;18.33;14.67;;;;;20.73;57.43;100947.41;6286420;22;44751;-92
2021/09/19 08:57:10;;;;;;;;;13.33;12.67;;;;;20.62;57.41;100934.28;6286696;22;45113;-92
2021/09/19 09:00:09;;;;;;;;;;;;;;;;;;;;;
2021/09/19 09:02:47;;;;;;;;;17.67;13.67;;;;;20.70;56.96;100949.22;6309603;22;72555;-79
2021/09/19 09:05:28;;;;;;;;;16.67;16.67;;;;;20.75;56.96;100959.78;6306720;22;45247;-77
2021/09/19 09:07:56;;;;;;;;;14.33;14.33;;;;;20.76;56.99;100955.34;6306954;22;45357;-79
2021/09/19 09:10:35;;;;;;;;;16.67;13.00;;;;;20.80;57.10;100965.94;6306059;22;45915;-76
2021/09/19 09:13:03;;;;;;;;;16.67;14.67;;;;;20.81;57.36;100966.81;6305455;22;45259;-77
2021/09/19 09:15:38;;;;;;;;;17.33;13.33;;;;;20.83;56.02;100971.19;6306596;22;45231;-74
2021/09/19 09:18:12;;;;;;;;;14.67;13.67;;;;;20.86;57.64;100978.28;6312126;22;45223;-90
2021/09/19 09:21:06;;;;;;;;;13.67;13.33;;;;;20.97;57.65;100980.72;6299448;22;46604;-91
2021/09/19 09:23:36;;;;;;;;;15.00;14.33;;;;;21.03;56.98;100985.94;6282184;22;45327;-80
2021/09/19 09:26:32;;;;;;;;;13.33;13.00;;;;;21.15;57.17;100999.97;6306340;22;45382;-82
2021/09/19 09:29:06;;;;;;;;;14.67;12.67;;;;;21.24;56.58;100988.16;6306631;22;45452;-79
2021/09/19 09:31:44;;;;;;;;;13.67;13.00;;;;;21.34;56.55;100994.19;6305777;22;45994;-76
2021/09/19 09:34:16;;;;;;;;;12.67;12.67;;;;;21.41;55.85;100985.09;6306613;22;45413;-77
2021/09/19 09:36:59;;;;;;;;;13.00;11.33;;;;;21.43;55.56;100993.09;6306696;22;45284;-77
2021/09/19 09:39:45;;;;;;;;;16.33;13.00;;;;;21.42;55.28;100986.84;6306879;22;45189;-79
2021/09/19 09:42:14;;;;;;;;;51.75;36.75;;;;;21.42;55.23;100992.22;6305509;22;46196;-80
2021/09/19 09:44:40;;;;;;;;;82.75;57.75;;;;;21.40;54.94;100994.91;6306550;22;45329;-80
2021/09/19 09:47:14;;;;;;;;;20.00;16.00;;;;;21.41;55.54;100993.09;6306552;22;45178;-78
2021/09/19 09:49:40;;;;;;;;;16.00;14.00;;;;;21.42;54.53;100999.34;6305951;22;45656;-79
2021/09/19 09:52:22;;;;;;;;;17.33;14.00;;;;;21.41;55.06;100990.44;6305532;22;47260;-85
2021/09/19 09:54:49;;;;;;;;;14.33;13.33;;;;;21.55;55.40;100992.78;6305836;22;45330;-80
2021/09/19 09:57:42;;;;;;;;;13.67;12.00;;;;;21.84;54.45;101001.03;6306533;22;45372;-80
2021/09/19 10:00:15;;;;;;;;;20.00;16.00;;;;;22.29;55.18;100997.13;6288558;22;45403;-81
2021/09/19 10:02:43;;;;;;;;;15.67;15.00;;;;;22.51;53.98;101004.59;6305180;22;45426;-82
2021/09/19 10:05:12;;;;;;;;;14.00;13.00;;;;;22.58;53.23;100999.03;6305983;22;45256;-80
2021/09/19 10:07:39;;;;;;;;;12.33;11.67;;;;;22.52;53.71;100995.63;6306945;22;45294;-90
2021/09/19 10:10:17;;;;;;;;;11.67;11.00;;;;;22.50;53.55;100999.28;6309222;22;45172;-91
2021/09/19 10:12:47;;;;;;;;;12.00;10.67;;;;;22.56;53.92;100994.63;6279779;22;48068;-91
2021/09/19 10:15:27;;;;;;;;;14.67;12.67;;;;;22.78;52.99;101006.56;6280395;22;45736;-90
2021/09/19 10:17:54;;;;;;;;;12.67;12.00;;;;;22.99;53.14;101007.69;6309990;22;45308;-91
2021/09/19 10:20:23;;;;;;;;;15.00;12.00;;;;;23.28;54.08;101004.16;6308963;22;45193;-89
2021/09/19 10:23:06;;;;;;;;;14.67;13.00;;;;;23.58;53.07;101012.16;6280381;22;47016;-89
2021/09/19 10:26:12;;;;;;;;;;;;;;;;;;;;;
2021/09/19 10:28:39;;;;;;;;;14.00;13.00;;;;;23.97;52.02;101000.13;6308507;22;67296;-90
2021/09/19 10:31:08;;;;;;;;;15.00;13.33;;;;;23.94;50.69;100998.41;6292413;22;45406;-90
2021/09/19 10:33:51;;;;;;;;;17.00;14.33;;;;;23.96;51.13;101000.19;6286563;22;47137;-90
2021/09/19 10:36:31;;;;;;;;;15.67;13.33;;;;;24.20;51.92;101000.25;6284258;22;45374;-89
2021/09/19 10:39:24;;;;;;;;;13.00;12.33;;;;;24.74;51.12;101006.34;6311336;22;45270;-91
2021/09/19 10:42:10;;;;;;;;;13.00;13.00;;;;;25.29;49.58;101001.59;6283050;22;45576;-91
2021/09/19 10:44:44;;;;;;;;;14.67;14.00;;;;;25.83;49.55;101007.47;6282831;22;47073;-92
2021/09/19 10:47:26;;;;;;;;;18.00;16.00;;;;;26.47;47.86;101013.72;6312769;22;45370;-94
2021/09/19 10:50:11;;;;;;;;;18.33;15.67;;;;;27.47;47.58;101007.31;6312411;22;45309;-90
2021/09/19 10:53:00;;;;;;;;;19.33;14.33;;;;;28.49;46.79;101011.13;6312273;22;45274;-93
2021/09/19 10:55:47;;;;;;;;;14.33;12.00;;;;;29.66;41.93;101005.56;6312773;22;46160;-92
2021/09/19 10:58:14;;;;;;;;;13.33;11.67;;;;;30.72;43.76;101020.88;6313361;22;45147;-93
2021/09/19 11:00:44;;;;;;;;;13.00;11.00;;;;;31.79;42.18;101014.00;6311010;22;45227;-83
2021/09/19 11:03:15;;;;;;;;;31.00;21.00;;;;;32.77;40.40;101013.59;6306256;22;45341;-78
2021/09/19 11:05:53;;;;;;;;;17.00;15.33;;;;;33.48;36.73;101020.25;6309551;22;46191;-92
2021/09/19 11:08:21;;;;;;;;;13.67;13.67;;;;;33.81;36.76;101015.94;6282186;22;45374;-92
2021/09/19 11:10:52;;;;;;;;;15.33;14.00;;;;;33.69;36.14;101014.13;6280430;22;45220;-92
2021/09/19 11:13:42;;;;;;;;;14.33;13.33;;;;;33.12;35.54;101012.84;6309248;22;45184;-92
2021/09/19 11:16:08;;;;;;;;;18.67;15.00;;;;;32.95;36.30;101010.50;6310208;22;45385;-92
2021/09/19 11:18:41;;;;;;;;;12.67;12.00;;;;;32.65;35.84;101010.81;6283376;22;45353;-92
2021/09/19 11:21:09;;;;;;;;;17.00;15.67;;;;;32.73;35.67;101015.66;6310757;22;45275;-92
2021/09/19 11:23:42;;;;;;;;;15.67;14.33;;;;;33.37;35.94;101007.44;6282766;22;45431;-92
2021/09/19 11:26:10;;;;;;;;;15.67;13.67;;;;;34.11;34.33;100997.28;6281527;22;47104;-91
2021/09/19 11:28:37;;;;;;;;;14.33;14.33;;;;;34.30;33.70;101018.53;6283135;22;45235;-91
2021/09/19 11:31:03;;;;;;;;;15.67;15.00;;;;;34.51;33.31;101034.16;6312064;22;45299;-78